New Bremen, Ohio
Current Conditions -  °F | °C
As of 4:33 PM on Saturday 20 Dec 2014 (Local Time) from KAXV Reporting Station
Broken Clouds Broken Clouds  
Wind Chill: 32°   Ceiling: 2300
Heat Index: 32°   Visibility: 7mi
Dew Point: 28°   Wind: 3mph
Humidity: 87%   Direction: 230°SW
Pressure: 30.25"   Gusts: NA
Location:  40.44°N, 84.38°W
Report Text: KAXV 202133Z AUTO 23003KT 7SM BKN023 BKN029 00/M02 A3025 RMK AO2
Loading
Personal Weather Stations






























Interactive Weather Map New forecast layout! Learn more

10-Day Weather Forecast

Advertisements
Track Severe Weather on mobile